sensor_id;sensor_type;location;lat;lon;timestamp;pressure;altitude;pressure_sealevel;temperature;humidity
17950;BME280;9100;48.700;9.316;2023-01-27T00:00:34;97928.09999999999;;;0.25;100
17950;BME280;9100;48.700;9.316;2023-01-27T00:00:56;97928.09999999999;;;0.25;100
17950;BME280;9100;48.700;9.316;2023-01-27T00:01:56;97925.40000000001;;;0.26;100
17950;BME280;9100;48.700;9.316;2023-01-27T00:02:56;97930.4;;;0.28;100
17950;BME280;9100;48.700;9.316;2023-01-27T00:03:56;97922;;;0.27;100
17950;BME280;9100;48.700;9.316;2023-01-27T00:04:56;97921.3;;;0.25;100
17950;BME280;9100;48.700;9.316;2023-01-27T00:05:34;97923;;;0.25;100
17950;BME280;9100;48.700;9.316;2023-01-27T00:05:56;97927.20000000001;;;0.26;100
17950;BME280;9100;48.700;9.316;2023-01-27T00:06:56;97927.20000000001;;;0.26;100
17950;BME280;9100;48.700;9.316;2023-01-27T00:07:56;97923;;;0.25;100
17950;BME280;9100;48.700;9.316;2023-01-27T00:08:56;97934;;;0.24;100
17950;BME280;9100;48.700;9.316;2023-01-27T00:09:56;97931.6;;;0.22;100
17950;BME280;9100;48.700;9.316;2023-01-27T00:10:34;97935.1;;;0.2;100
17950;BME280;9100;48.700;9.316;2023-01-27T00:10:57;97932.6;;;0.2;100
17950;BME280;9100;48.700;9.316;2023-01-27T00:11:56;97932.6;;;0.2;100
17950;BME280;9100;48.700;9.316;2023-01-27T00:12:56;97934.3;;;0.19;100
17950;BME280;9100;48.700;9.316;2023-01-27T00:13:56;97931.8;;;0.19;100
17950;BME280;9100;48.700;9.316;2023-01-27T00:14:56;97933.5;;;0.19;100
17950;BME280;9100;48.700;9.316;2023-01-27T00:15:35;97925.2;;;0.18;100
17950;BME280;9100;48.700;9.316;2023-01-27T00:15:56;97923.6;;;0.17;100
17950;BME280;9100;48.700;9.316;2023-01-27T00:16:56;97923.5;;;0.19;100
17950;BME280;9100;48.700;9.316;2023-01-27T00:17:56;97922.7;;;0.18;100
17950;BME280;9100;48.700;9.316;2023-01-27T00:18:57;97922.7;;;0.18;100
17950;BME280;9100;48.700;9.316;2023-01-27T00:19:57;97914.3;;;0.18;100
17950;BME280;9100;48.700;9.316;2023-01-27T00:20:35;97913.5;;;0.17;100
17950;BME280;9100;48.700;9.316;2023-01-27T00:20:57;97915.9;;;0.19;100
17950;BME280;9100;48.700;9.316;2023-01-27T00:21:57;97914.3;;;0.18;100
17950;BME280;9100;48.700;9.316;2023-01-27T00:22:57;97915.09999999999;;;0.18;100
17950;BME280;9100;48.700;9.316;2023-01-27T00:23:56;97917.5;;;0.2;100
17950;BME280;9100;48.700;9.316;2023-01-27T00:24:56;97911.7;;;0.19;100
17950;BME280;9100;48.700;9.316;2023-01-27T00:25:34;97920;;;0.2;100
17950;BME280;9100;48.700;9.316;2023-01-27T00:25:56;97918.3;;;0.2;100
17950;BME280;9100;48.700;9.316;2023-01-27T00:26:56;97918.2;;;0.22;100
17950;BME280;9100;48.700;9.316;2023-01-27T00:27:56;97921.6;;;0.22;100
17950;BME280;9100;48.700;9.316;2023-01-27T00:28:56;97916.6;;;0.21;100
17950;BME280;9100;48.700;9.316;2023-01-27T00:29:56;97913.2;;;0.22;100
17950;BME280;9100;48.700;9.316;2023-01-27T00:30:34;97915;;;0.2;100
17950;BME280;9100;48.700;9.316;2023-01-27T00:30:56;97910.79999999999;;;0.2;100
17950;BME280;9100;48.700;9.316;2023-01-27T00:31:56;97917.3;;;0.23;100
17950;BME280;9100;48.700;9.316;2023-01-27T00:32:56;97919.8;;;0.23;100
17950;BME280;9100;48.700;9.316;2023-01-27T00:33:56;97919.8;;;0.23;100
17950;BME280;9100;48.700;9.316;2023-01-27T00:34:56;97916.4;;;0.24;100
17950;BME280;9100;48.700;9.316;2023-01-27T00:35:34;97913.9;;;0.24;100
17950;BME280;9100;48.700;9.316;2023-01-27T00:35:57;97918.9;;;0.24;100
17950;BME280;9100;48.700;9.316;2023-01-27T00:36:57;97913.9;;;0.24;100
17950;BME280;9100;48.700;9.316;2023-01-27T00:37:57;97924.7;;;0.26;100
17950;BME280;9100;48.700;9.316;2023-01-27T00:38:56;97915.4;;;0.26;100
17950;BME280;9100;48.700;9.316;2023-01-27T00:39:56;97915.5;;;0.25;100
17950;BME280;9100;48.700;9.316;2023-01-27T00:40:34;97922.90000000001;;;0.26;100
17950;BME280;9100;48.700;9.316;2023-01-27T00:40:56;97914.59999999999;;;0.26;100
17950;BME280;9100;48.700;9.316;2023-01-27T00:41:56;97913.7;;;0.27;100
17950;BME280;9100;48.700;9.316;2023-01-27T00:42:56;97919.4;;;0.29;100
17950;BME280;9100;48.700;9.316;2023-01-27T00:43:56;97915.3;;;0.28;100
17950;BME280;9100;48.700;9.316;2023-01-27T00:44:56;97921;;;0.3;100
17950;BME280;9100;48.700;9.316;2023-01-27T00:45:34;97925.3;;;0.28;100
17950;BME280;9100;48.700;9.316;2023-01-27T00:45:56;97919.5;;;0.27;100
17950;BME280;9100;48.700;9.316;2023-01-27T00:46:56;97918.5;;;0.3;100
17950;BME280;9100;48.700;9.316;2023-01-27T00:47:56;97917.7;;;0.29;100
17950;BME280;9100;48.700;9.316;2023-01-27T00:48:56;97922.7;;;0.29;100
17950;BME280;9100;48.700;9.316;2023-01-27T00:49:56;97921.3;;;0.25;100
17950;BME280;9100;48.700;9.316;2023-01-27T00:50:34;97925.59999999999;;;0.25;100
17950;BME280;9100;48.700;9.316;2023-01-27T00:50:56;97928;;;0.26;100
17950;BME280;9100;48.700;9.316;2023-01-27T00:51:56;97922;;;0.27;100
17950;BME280;9100;48.700;9.316;2023-01-27T00:52:56;97927;;;0.29;100
17950;BME280;9100;48.700;9.316;2023-01-27T00:53:56;97920.3;;;0.28;100
17950;BME280;9100;48.700;9.316;2023-01-27T00:54:56;97926.09999999999;;;0.28;100
17950;BME280;9100;48.700;9.316;2023-01-27T00:55:35;97929.5;;;0.29;100
17950;BME280;9100;48.700;9.316;2023-01-27T00:55:56;97924.40000000001;;;0.29;100
17950;BME280;9100;48.700;9.316;2023-01-27T00:56:56;97932.9;;;0.28;100
17950;BME280;9100;48.700;9.316;2023-01-27T00:57:56;97928.09999999999;;;0.25;100
17950;BME280;9100;48.700;9.316;2023-01-27T00:58:56;97929;;;0.24;100
17950;BME280;9100;48.700;9.316;2023-01-27T00:59:56;97927.59999999999;;;0.2;100
17950;BME280;9100;48.700;9.316;2023-01-27T01:00:34;97933.5;;;0.19;100
17950;BME280;9100;48.700;9.316;2023-01-27T01:00:57;97931;;;0.19;100
17950;BME280;9100;48.700;9.316;2023-01-27T01:01:57;97938.7;;;0.17;100
17950;BME280;9100;48.700;9.316;2023-01-27T01:02:56;97936.2;;;0.16;100
17950;BME280;9100;48.700;9.316;2023-01-27T01:03:56;97933;;;0.14;100
17950;BME280;9100;48.700;9.316;2023-01-27T01:04:56;97934.7;;;0.15;100
17950;BME280;9100;48.700;9.316;2023-01-27T01:05:34;97928.8;;;0.14;100
17950;BME280;9100;48.700;9.316;2023-01-27T01:05:56;97939.70000000001;;;0.15;100
17950;BME280;9100;48.700;9.316;2023-01-27T01:06:56;97938.09999999999;;;0.14;100
17950;BME280;9100;48.700;9.316;2023-01-27T01:07:56;97935.6;;;0.14;100
17950;BME280;9100;48.700;9.316;2023-01-27T01:08:57;97930.3;;;0.17;100
17950;BME280;9100;48.700;9.316;2023-01-27T01:09:56;97926.2;;;0.16;100
17950;BME280;9100;48.700;9.316;2023-01-27T01:10:35;97931.9;;;0.18;100
17950;BME280;9100;48.700;9.316;2023-01-27T01:10:57;97931.8;;;0.19;100
17950;BME280;9100;48.700;9.316;2023-01-27T01:11:56;97927.59999999999;;;0.2;100
17950;BME280;9100;48.700;9.316;2023-01-27T01:12:56;97929.1;;;0.22;100
17950;BME280;9100;48.700;9.316;2023-01-27T01:13:56;97928.2;;;0.23;100
17950;BME280;9100;48.700;9.316;2023-01-27T01:14:56;97933.3;;;0.22;100
17950;BME280;9100;48.700;9.316;2023-01-27T01:15:34;97935.79999999999;;;0.22;100
17950;BME280;9100;48.700;9.316;2023-01-27T01:15:56;97933.3;;;0.22;100
17950;BME280;9100;48.700;9.316;2023-01-27T01:16:56;97921.40000000001;;;0.13;100
17950;BME280;9100;48.700;9.316;2023-01-27T01:17:56;97937.59999999999;;;0.2;100
17950;BME280;9100;48.700;9.316;2023-01-27T01:18:56;97935.2;;;0.18;100
17950;BME280;9100;48.700;9.316;2023-01-27T01:19:56;97937.59999999999;;;0.2;100
17950;BME280;9100;48.700;9.316;2023-01-27T01:20:34;97937.59999999999;;;0.2;100
17950;BME280;9100;48.700;9.316;2023-01-27T01:20:56;97949.3;;;0.21;100
17950;BME280;9100;48.700;9.316;2023-01-27T01:21:56;97941.9;;;0.19;100
17950;BME280;9100;48.700;9.316;2023-01-27T01:22:56;97939.3;;;0.21;100
17950;BME280;9100;48.700;9.316;2023-01-27T01:23:56;97940.3;;;0.18;100
17950;BME280;9100;48.700;9.316;2023-01-27T01:24:56;97942.7;;;0.2;100
17950;BME280;9100;48.700;9.316;2023-01-27T01:25:34;97945.4;;;0.17;100
17950;BME280;9100;48.700;9.316;2023-01-27T01:25:56;97942.9;;;0.17;100
17950;BME280;9100;48.700;9.316;2023-01-27T01:26:56;97947.1;;;0.16;100
17950;BME280;9100;48.700;9.316;2023-01-27T01:27:56;97947.90000000001;;;0.17;100
17950;BME280;9100;48.700;9.316;2023-01-27T01:28:56;97947.1;;;0.16;100
17950;BME280;9100;48.700;9.316;2023-01-27T01:29:56;97943.8;;;0.16;100
17950;BME280;9100;48.700;9.316;2023-01-27T01:30:34;97943.1;;;0.14;100
17950;BME280;9100;48.700;9.316;2023-01-27T01:31:02;97947.2;;;0.15;100
17950;BME280;9100;48.700;9.316;2023-01-27T01:31:56;97945.6;;;0.14;100
17950;BME280;9100;48.700;9.316;2023-01-27T01:32:56;97942.3;;;0.13;100
17950;BME280;9100;48.700;9.316;2023-01-27T01:33:56;97949.7;;;0.15;100
17950;BME280;9100;48.700;9.316;2023-01-27T01:34:56;97941.5;;;0.13;100
17950;BME280;9100;48.700;9.316;2023-01-27T01:35:35;97946.5;;;0.13;100
17950;BME280;9100;48.700;9.316;2023-01-27T01:36:01;97944;;;0.13;100
17950;BME280;9100;48.700;9.316;2023-01-27T01:36:56;97943.9;;;0.14;100
17950;BME280;9100;48.700;9.316;2023-01-27T01:37:57;97938.09999999999;;;0.14;100
17950;BME280;9100;48.700;9.316;2023-01-27T01:38:56;97939.70000000001;;;0.15;100
17950;BME280;9100;48.700;9.316;2023-01-27T01:39:56;97938.09999999999;;;0.14;100
17950;BME280;9100;48.700;9.316;2023-01-27T01:40:38;97940.59999999999;;;0.14;100
17950;BME280;9100;48.700;9.316;2023-01-27T01:40:56;97937.3;;;0.13;100
17950;BME280;9100;48.700;9.316;2023-01-27T01:41:56;97932.3;;;0.13;100
17950;BME280;9100;48.700;9.316;2023-01-27T01:42:56;97939.70000000001;;;0.15;100
17950;BME280;9100;48.700;9.316;2023-01-27T01:43:56;97942.2;;;0.15;100
17950;BME280;9100;48.700;9.316;2023-01-27T01:45:29;97934.7;;;0.15;100
17950;BME280;9100;48.700;9.316;2023-01-27T01:45:39;97937.3;;;0.13;100
17950;BME280;9100;48.700;9.316;2023-01-27T01:45:56;97933.90000000001;;;0.14;100
17950;BME280;9100;48.700;9.316;2023-01-27T01:46:57;97934.7;;;0.15;100
17950;BME280;9100;48.700;9.316;2023-01-27T01:47:57;97924.59999999999;;;0.15;100
17950;BME280;9100;48.700;9.316;2023-01-27T01:48:57;97928.9;;;0.13;100
17950;BME280;9100;48.700;9.316;2023-01-27T01:49:56;97927.3;;;0.12;100
17950;BME280;9100;48.700;9.316;2023-01-27T01:50:34;97929.8;;;0.12;100
17950;BME280;9100;48.700;9.316;2023-01-27T01:50:57;97934;;;0.13;100
17950;BME280;9100;48.700;9.316;2023-01-27T01:51:57;97927.20000000001;;;0.13;100
17950;BME280;9100;48.700;9.316;2023-01-27T01:52:56;97927.20000000001;;;0.13;100
17950;BME280;9100;48.700;9.316;2023-01-27T01:53:57;97922.2;;;0.13;100
17950;BME280;9100;48.700;9.316;2023-01-27T01:54:56;97926.3;;;0.14;100
17950;BME280;9100;48.700;9.316;2023-01-27T01:55:34;97929.7;;;0.13;100
17950;BME280;9100;48.700;9.316;2023-01-27T01:55:57;97925.5;;;0.14;100
17950;BME280;9100;48.700;9.316;2023-01-27T01:56:58;97926.2;;;0.16;100
17950;BME280;9100;48.700;9.316;2023-01-27T01:57:57;97912.7;;;0.17;100
17950;BME280;9100;48.700;9.316;2023-01-27T01:58:57;97927;;;0.16;100
17950;BME280;9100;48.700;9.316;2023-01-27T01:59:57;97919.6;;;0.15;100
17950;BME280;9100;48.700;9.316;2023-01-27T02:00:35;97923;;;0.14;100
17950;BME280;9100;48.700;9.316;2023-01-27T02:00:57;97918.8;;;0.14;100
17950;BME280;9100;48.700;9.316;2023-01-27T02:01:57;97912.90000000001;;;0.14;100
17950;BME280;9100;48.700;9.316;2023-01-27T02:02:56;97916.4;;;0.13;100
17950;BME280;9100;48.700;9.316;2023-01-27T02:03:57;97922.2;;;0.13;100
17950;BME280;9100;48.700;9.316;2023-01-27T02:04:57;97907.1;;;0.13;100
17950;BME280;9100;48.700;9.316;2023-01-27T02:05:35;97908.7;;;0.14;100
17950;BME280;9100;48.700;9.316;2023-01-27T02:05:56;97908.7;;;0.14;100
17950;BME280;9100;48.700;9.316;2023-01-27T02:06:57;97908.7;;;0.14;100
17950;BME280;9100;48.700;9.316;2023-01-27T02:07:56;97909.40000000001;;;0.16;100
17950;BME280;9100;48.700;9.316;2023-01-27T02:08:56;97910.40000000001;;;0.14;100
17950;BME280;9100;48.700;9.316;2023-01-27T02:09:56;97909.5;;;0.15;100
17950;BME280;9100;48.700;9.316;2023-01-27T02:10:34;97909.5;;;0.15;100
17950;BME280;9100;48.700;9.316;2023-01-27T02:10:56;97904.5;;;0.15;100
17950;BME280;9100;48.700;9.316;2023-01-27T02:11:56;97919.5;;;0.16;100
17950;BME280;9100;48.700;9.316;2023-01-27T02:12:56;97912.7;;;0.17;100
17950;BME280;9100;48.700;9.316;2023-01-27T02:13:58;97911.1;;;0.16;100
17950;BME280;9100;48.700;9.316;2023-01-27T02:14:56;97909.5;;;0.15;100
17950;BME280;9100;48.700;9.316;2023-01-27T02:15:34;97912;;;0.15;100
17950;BME280;9100;48.700;9.316;2023-01-27T02:15:56;97908.7;;;0.14;100
17950;BME280;9100;48.700;9.316;2023-01-27T02:16:56;97909.5;;;0.15;100
17950;BME280;9100;48.700;9.316;2023-01-27T02:17:56;97912.09999999999;;;0.13;100
17950;BME280;9100;48.700;9.316;2023-01-27T02:18:56;97906.2;;;0.14;100
17950;BME280;9100;48.700;9.316;2023-01-27T02:19:57;97903.8;;;0.13;100
17950;BME280;9100;48.700;9.316;2023-01-27T02:20:36;97905.4;;;0.14;100
17950;BME280;9100;48.700;9.316;2023-01-27T02:20:56;97898.7;;;0.14;100
17950;BME280;9100;48.700;9.316;2023-01-27T02:21:56;97899.5;;;0.15;100
17950;BME280;9100;48.700;9.316;2023-01-27T02:22:58;97896;;;0.16;100
17950;BME280;9100;48.700;9.316;2023-01-27T02:23:57;97902.9;;;0.14;100
17950;BME280;9100;48.700;9.316;2023-01-27T02:24:58;97901.3;;;0.13;100
17950;BME280;9100;48.700;9.316;2023-01-27T02:25:38;97898.7;;;0.13;100
17950;BME280;9100;48.700;9.316;2023-01-27T02:25:56;97901.3;;;0.13;100
17950;BME280;9100;48.700;9.316;2023-01-27T02:26:56;97900.5;;;0.12;100
17950;BME280;9100;48.700;9.316;2023-01-27T02:27:56;97900.40000000001;;;0.14;100
17950;BME280;9100;48.700;9.316;2023-01-27T02:28:57;97904.5;;;0.15;100
17950;BME280;9100;48.700;9.316;2023-01-27T02:29:56;97907.8;;;0.15;100
17950;BME280;9100;48.700;9.316;2023-01-27T02:30:34;97902.09999999999;;;0.13;100
17950;BME280;9100;48.700;9.316;2023-01-27T02:30:56;97897.90000000001;;;0.14;100
17950;BME280;9100;48.700;9.316;2023-01-27T02:31:56;97900.40000000001;;;0.14;100
17950;BME280;9100;48.700;9.316;2023-01-27T02:32:56;97892.8;;;0.14;100
17950;BME280;9100;48.700;9.316;2023-01-27T02:33:58;97896.7;;;0.07;100
17950;BME280;9100;48.700;9.316;2023-01-27T02:34:56;97897.90000000001;;;0.14;100
17950;BME280;9100;48.700;9.316;2023-01-27T02:35:35;97900.40000000001;;;0.14;100
17950;BME280;9100;48.700;9.316;2023-01-27T02:35:57;97897;;;0.15;100
17950;BME280;9100;48.700;9.316;2023-01-27T02:36:57;97903.59999999999;;;0.16;100
17950;BME280;9100;48.700;9.316;2023-01-27T02:37:56;97899.5;;;0.15;100
17950;BME280;9100;48.700;9.316;2023-01-27T02:38:56;97896;;;0.16;100
17950;BME280;9100;48.700;9.316;2023-01-27T02:39:56;97895.2;;;0.15;100
17950;BME280;9100;48.700;9.316;2023-01-27T02:40:34;97899.59999999999;;;0.13;100
17950;BME280;9100;48.700;9.316;2023-01-27T02:40:58;97896.2;;;0.13;100
17950;BME280;9100;48.700;9.316;2023-01-27T02:41:57;97903.09999999999;;;0.11;100
17950;BME280;9100;48.700;9.316;2023-01-27T02:42:57;97899.1;;;0.08;100
17950;BME280;9100;48.700;9.316;2023-01-27T02:43:57;97903.3;;;0.08;100
17950;BME280;9100;48.700;9.316;2023-01-27T02:44:56;97902.59999999999;;;0.06;100
17950;BME280;9100;48.700;9.316;2023-01-27T02:45:35;97917.8;;;0.04;100
17950;BME280;9100;48.700;9.316;2023-01-27T02:45:57;97909.5;;;0.04;100
17950;BME280;9100;48.700;9.316;2023-01-27T02:46:56;97907.9;;;0.03;100
17950;BME280;9100;48.700;9.316;2023-01-27T02:47:57;97917;;;0.04;100
17950;BME280;9100;48.700;9.316;2023-01-27T02:48:57;97912.8;;;0.04;100
17950;BME280;9100;48.700;9.316;2023-01-27T02:49:57;97908.5;;;0.05;100
17950;BME280;9100;48.700;9.316;2023-01-27T02:50:34;97901.9;;;0.04;100
17950;BME280;9100;48.700;9.316;2023-01-27T02:50:56;97899.40000000001;;;0.04;100
17950;BME280;9100;48.700;9.316;2023-01-27T02:51:56;97912;;;0.04;100
17950;BME280;9100;48.700;9.316;2023-01-27T02:52:56;97910.40000000001;;;0.03;100
17950;BME280;9100;48.700;9.316;2023-01-27T02:53:56;97901.09999999999;;;0.03;100
17950;BME280;9100;48.700;9.316;2023-01-27T02:54:56;97900.3;;;0.03;100
17950;BME280;9100;48.700;9.316;2023-01-27T02:55:34;97892.8;;;0.03;100
17950;BME280;9100;48.700;9.316;2023-01-27T02:55:56;97896.90000000001;;;0.04;100
17950;BME280;9100;48.700;9.316;2023-01-27T02:56:56;97892.8;;;0.03;100
17950;BME280;9100;48.700;9.316;2023-01-27T02:57:56;97906.1;;;0.03;100
17950;BME280;9100;48.700;9.316;2023-01-27T02:58:56;97897;;;0.02;100
17950;BME280;9100;48.700;9.316;2023-01-27T02:59:56;97895.3;;;0.03;100
17950;BME280;9100;48.700;9.316;2023-01-27T03:00:35;97898.6;;;0.03;100
17950;BME280;9100;48.700;9.316;2023-01-27T03:00:56;97890.3;;;0.03;100
17950;BME280;9100;48.700;9.316;2023-01-27T03:01:56;97892.7;;;0.04;100
17950;BME280;9100;48.700;9.316;2023-01-27T03:02:56;97890.9;;;0.05;100
17950;BME280;9100;48.700;9.316;2023-01-27T03:03:56;97892.5;;;0.06;100
17950;BME280;9100;48.700;9.316;2023-01-27T03:04:56;97888.4;;;0.05;100
17950;BME280;9100;48.700;9.316;2023-01-27T03:05:34;97883.4;;;0.05;100
17950;BME280;9100;48.700;9.316;2023-01-27T03:05:56;97894.2;;;0.07;100
17950;BME280;9100;48.700;9.316;2023-01-27T03:06:56;97891.7;;;0.07;100
17950;BME280;9100;48.700;9.316;2023-01-27T03:07:56;97881.6;;;0.07;100
17950;BME280;9100;48.700;9.316;2023-01-27T03:08:56;97889;;;0.08;100
17950;BME280;9100;48.700;9.316;2023-01-27T03:09:56;97884.79999999999;;;0.09;100
17950;BME280;9100;48.700;9.316;2023-01-27T03:10:34;97893.2;;;0.08;100
17950;BME280;9100;48.700;9.316;2023-01-27T03:10:56;97893.2;;;0.08;100
17950;BME280;9100;48.700;9.316;2023-01-27T03:11:56;97894.2;;;0.07;100
17950;BME280;9100;48.700;9.316;2023-01-27T03:12:56;97888.5;;;0.03;100
17950;BME280;9100;48.700;9.316;2023-01-27T03:13:56;97895.3;;;0.03;100
17950;BME280;9100;48.700;9.316;2023-01-27T03:14:56;97897;;;0.02;100
17950;BME280;9100;48.700;9.316;2023-01-27T03:15:35;97896.2;;;0.02;100
17950;BME280;9100;48.700;9.316;2023-01-27T03:15:57;97891.2;;;0.02;100
17950;BME280;9100;48.700;9.316;2023-01-27T03:16:57;97891.2;;;0.02;100
17950;BME280;9100;48.700;9.316;2023-01-27T03:18:02;97890.3;;;0.03;100
17950;BME280;9100;48.700;9.316;2023-01-27T03:18:56;97889.5;;;0.02;100
17950;BME280;9100;48.700;9.316;2023-01-27T03:19:56;97883.6;;;0.02;100
17950;BME280;9100;48.700;9.316;2023-01-27T03:20:34;97884.40000000001;;;0.02;100
17950;BME280;9100;48.700;9.316;2023-01-27T03:20:59;97897.1;;;0;100
17950;BME280;9100;48.700;9.316;2023-01-27T03:21:56;97892;;;0.02;100
17950;BME280;9100;48.700;9.316;2023-01-27T03:22:56;97894.4;;;0.04;100
17950;BME280;9100;48.700;9.316;2023-01-27T03:23:56;97885;;;0.06;100
17950;BME280;9100;48.700;9.316;2023-01-27T03:24:56;97893.5;;;0.05;100
17950;BME280;9100;48.700;9.316;2023-01-27T03:25:35;97895.2;;;0.04;100
17950;BME280;9100;48.700;9.316;2023-01-27T03:25:56;97898.5;;;0.05;100
17950;BME280;9100;48.700;9.316;2023-01-27T03:26:56;97900.3;;;0.03;100
17950;BME280;9100;48.700;9.316;2023-01-27T03:27:57;97907;;;0.04;100
17950;BME280;9100;48.700;9.316;2023-01-27T03:28:56;97909.5;;;0.04;100
17950;BME280;9100;48.700;9.316;2023-01-27T03:29:56;97913.8;;;0.02;100
17950;BME280;9100;48.700;9.316;2023-01-27T03:30:34;97908.8;;;0.02;100
17950;BME280;9100;48.700;9.316;2023-01-27T03:30:58;97906.2;;;0.02;100
17950;BME280;9100;48.700;9.316;2023-01-27T03:31:57;97862.8;;;-0.24;100
17950;BME280;9100;48.700;9.316;2023-01-27T03:32:56;97903.59999999999;;;0.03;100
17950;BME280;9100;48.700;9.316;2023-01-27T03:33:56;97907.9;;;0.03;100
17950;BME280;9100;48.700;9.316;2023-01-27T03:34:56;97917.2;;;0;100
17950;BME280;9100;48.700;9.316;2023-01-27T03:35:34;97917.2;;;0;100
17950;BME280;9100;48.700;9.316;2023-01-27T03:35:57;97913.8;;;0.02;100
17950;BME280;9100;48.700;9.316;2023-01-27T03:36:57;97898.40000000001;;;-0.07;100
17950;BME280;9100;48.700;9.316;2023-01-27T03:37:56;97918.9;;;0;100
17950;BME280;9100;48.700;9.316;2023-01-27T03:38:57;97914.70000000001;;;0;100
17950;BME280;9100;48.700;9.316;2023-01-27T03:39:56;97913.2;;;-0.02;100
17950;BME280;9100;48.700;9.316;2023-01-27T03:40:34;97909.79999999999;;;-0.01;100
17950;BME280;9100;48.700;9.316;2023-01-27T03:40:56;97909;;;-0.02;100
17950;BME280;9100;48.700;9.316;2023-01-27T03:41:56;97909;;;-0.02;100
17950;BME280;9100;48.700;9.316;2023-01-27T03:42:56;97911.5;;;-0.02;100
17950;BME280;9100;48.700;9.316;2023-01-27T03:43:56;97908.1;;;-0.01;100
17950;BME280;9100;48.700;9.316;2023-01-27T03:44:56;97912.40000000001;;;-0.03;100
17950;BME280;9100;48.700;9.316;2023-01-27T03:45:35;97910.7;;;-0.02;100
17950;BME280;9100;48.700;9.316;2023-01-27T03:45:56;97906.5;;;-0.02;100
17950;BME280;9100;48.700;9.316;2023-01-27T03:46:56;97912.2;;;0;100
17950;BME280;9100;48.700;9.316;2023-01-27T03:47:56;97909.7;;;0;100
17950;BME280;9100;48.700;9.316;2023-01-27T03:48:56;97908.8;;;0.02;100
17950;BME280;9100;48.700;9.316;2023-01-27T03:49:56;97902.9;;;0.01;100
17950;BME280;9100;48.700;9.316;2023-01-27T03:50:34;97851.9;;;-0.36;100
17950;BME280;9100;48.700;9.316;2023-01-27T03:50:56;97908.8;;;0.02;100
17950;BME280;9100;48.700;9.316;2023-01-27T03:51:56;97907.9;;;0.03;100
17950;BME280;9100;48.700;9.316;2023-01-27T03:52:56;97910.40000000001;;;0.03;100
17950;BME280;9100;48.700;9.316;2023-01-27T03:53:56;97901.9;;;0.04;100
17950;BME280;9100;48.700;9.316;2023-01-27T03:54:56;97907;;;0.04;100
17950;BME280;9100;48.700;9.316;2023-01-27T03:55:35;97897.90000000001;;;0.01;100
17950;BME280;9100;48.700;9.316;2023-01-27T03:55:56;97897.90000000001;;;0.01;100
17950;BME280;9100;48.700;9.316;2023-01-27T03:56:56;97902.8;;;0.03;100
17950;BME280;9100;48.700;9.316;2023-01-27T03:57:56;97909.7;;;0;100
17950;BME280;9100;48.700;9.316;2023-01-27T03:58:57;97917.2;;;0;100
17950;BME280;9100;48.700;9.316;2023-01-27T03:59:56;97907.4;;;-0.03;100
17950;BME280;9100;48.700;9.316;2023-01-27T04:00:34;97911.5;;;-0.02;100
17950;BME280;9100;48.700;9.316;2023-01-27T04:00:57;97913.2;;;-0.02;100
17950;BME280;9100;48.700;9.316;2023-01-27T04:01:56;97922.2;;;0;100
17950;BME280;9100;48.700;9.316;2023-01-27T04:02:56;97911.40000000001;;;0;100
17950;BME280;9100;48.700;9.316;2023-01-27T04:03:56;97913.8;;;0.02;100
17950;BME280;9100;48.700;9.316;2023-01-27T04:04:56;97921.5;;;0;100
17950;BME280;9100;48.700;9.316;2023-01-27T04:05:35;97914;;;-0.02;100
17950;BME280;9100;48.700;9.316;2023-01-27T04:05:56;97909.79999999999;;;-0.01;100
17950;BME280;9100;48.700;9.316;2023-01-27T04:06:56;97917.1;;;0.02;100
17950;BME280;9100;48.700;9.316;2023-01-27T04:07:57;97911;;;0.05;100
17950;BME280;9100;48.700;9.316;2023-01-27T04:08:56;97921;;;0.06;100
17950;BME280;9100;48.700;9.316;2023-01-27T04:09:56;97906.8;;;0.05;100
17950;BME280;9100;48.700;9.316;2023-01-27T04:10:34;97912;;;0.04;100
17950;BME280;9100;48.700;9.316;2023-01-27T04:11:00;97901;;;0.05;100
17950;BME280;9100;48.700;9.316;2023-01-27T04:11:58;97907.5;;;0.07;100
17950;BME280;9100;48.700;9.316;2023-01-27T04:12:56;97908.3;;;0.08;100
17950;BME280;9100;48.700;9.316;2023-01-27T04:13:58;97899.90000000001;;;0.09;100
17950;BME280;9100;48.700;9.316;2023-01-27T04:14:56;97899.90000000001;;;0.09;100
17950;BME280;9100;48.700;9.316;2023-01-27T04:15:34;97897.5;;;0.07;100
17950;BME280;9100;48.700;9.316;2023-01-27T04:15:57;97904.1;;;0.08;100
17950;BME280;9100;48.700;9.316;2023-01-27T04:16:58;97902.4;;;0.09;100
17950;BME280;9100;48.700;9.316;2023-01-27T04:17:57;97898.29999999999;;;0.08;100
17950;BME280;9100;48.700;9.316;2023-01-27T04:18:56;97899.1;;;0.08;100
17950;BME280;9100;48.700;9.316;2023-01-27T04:19:56;97913.3;;;0.08;100
17950;BME280;9100;48.700;9.316;2023-01-27T04:20:34;97905.9;;;0.06;100
17950;BME280;9100;48.700;9.316;2023-01-27T04:20:57;97905.9;;;0.06;100
17950;BME280;9100;48.700;9.316;2023-01-27T04:21:56;97906.7;;;0.07;100
17950;BME280;9100;48.700;9.316;2023-01-27T04:22:57;97904.3;;;0.05;100
17950;BME280;9100;48.700;9.316;2023-01-27T04:23:56;97908.7;;;0.03;100
17950;BME280;9100;48.700;9.316;2023-01-27T04:24:56;97903.7;;;0.02;100
17950;BME280;9100;48.700;9.316;2023-01-27T04:25:35;97898.7;;;0.02;100
17950;BME280;9100;48.700;9.316;2023-01-27T04:25:56;97909.6;;;0.02;100
17950;BME280;9100;48.700;9.316;2023-01-27T04:26:57;97909.5;;;0.04;100
17950;BME280;9100;48.700;9.316;2023-01-27T04:27:56;97899.3;;;0.05;100
17950;BME280;9100;48.700;9.316;2023-01-27T04:28:56;97913.59999999999;;;0.05;100
17950;BME280;9100;48.700;9.316;2023-01-27T04:29:56;97911.2;;;0.03;100
17950;BME280;9100;48.700;9.316;2023-01-27T04:30:34;97908.5;;;0.05;100
17950;BME280;9100;48.700;9.316;2023-01-27T04:30:57;97905.2;;;0.04;100
17950;BME280;9100;48.700;9.316;2023-01-27T04:31:56;97914.4;;;0.05;100
17950;BME280;9100;48.700;9.316;2023-01-27T04:32:56;97901.9;;;0.04;100
17950;BME280;9100;48.700;9.316;2023-01-27T04:33:56;97906.8;;;0.05;100
17950;BME280;9100;48.700;9.316;2023-01-27T04:34:56;97914.59999999999;;;0.02;100
17950;BME280;9100;48.700;9.316;2023-01-27T04:35:34;97907.1;;;0;100
17950;BME280;9100;48.700;9.316;2023-01-27T04:35:56;97916.3;;;0.02;100
17950;BME280;9100;48.700;9.316;2023-01-27T04:36:56;97909.7;;;0;100